Time;durP1;ratioP1;P1;durP2;ratioP2;P2;SDS_P1;SDS_P2;PMS_P1;PMS_P2;Temp;Humidity;BMP_temperature;BMP_pressure;BME280_temperature;BME280_humidity;BME280_pressure;Samples;Min_cycle;Max_cycle;Signal;HPM_P1;HPM_P2
2020/12/04 00:00:35;;;;;;;4.87;4.37;;;6.30;99.90;;;;;;5009601;28;20944;-80
2020/12/04 00:03:02;;;;;;;5.70;3.67;;;6.10;99.90;;;;;;5007560;28;20451;-82
2020/12/04 00:05:28;;;;;;;6.50;5.60;;;6.00;99.90;;;;;;5005204;28;20940;-81
2020/12/04 00:07:54;;;;;;;5.07;4.30;;;6.40;99.90;;;;;;5008270;28;20477;-82
2020/12/04 00:10:20;;;;;;;6.60;4.70;;;6.10;99.90;;;;;;5006316;28;20458;-81
2020/12/04 00:12:46;;;;;;;5.57;4.47;;;6.10;99.90;;;;;;5006775;28;20454;-81
2020/12/04 00:15:13;;;;;;;7.27;5.20;;;6.30;99.90;;;;;;5007066;28;20457;-81
2020/12/04 00:17:39;;;;;;;5.13;3.90;;;6.40;99.90;;;;;;5005279;28;20477;-79
2020/12/04 00:20:05;;;;;;;3.97;3.60;;;6.20;99.90;;;;;;5003848;28;20454;-81
2020/12/04 00:22:32;;;;;;;6.60;4.47;;;6.20;99.90;;;;;;5004057;28;20464;-81
2020/12/04 00:24:58;;;;;;;5.17;4.40;;;6.20;99.90;;;;;;5004670;28;20494;-80
2020/12/04 00:27:24;;;;;;;5.33;4.43;;;6.10;99.90;;;;;;5005023;28;20575;-81
2020/12/04 00:29:50;;;;;;;5.87;4.90;;;6.10;99.90;;;;;;5003234;28;20455;-80
2020/12/04 00:32:17;;;;;;;3.63;2.93;;;6.30;99.90;;;;;;5004332;28;20458;-82
2020/12/04 00:34:43;;;;;;;8.03;5.73;;;6.10;99.90;;;;;;5002059;28;20851;-80
2020/12/04 00:37:11;;;;;;;5.80;5.20;;;6.20;99.90;;;;;;5002726;28;20450;-82
2020/12/04 00:39:38;;;;;;;5.87;5.03;;;6.30;99.90;;;;;;5004333;28;20604;-82
2020/12/04 00:42:04;;;;;;;5.20;4.37;;;6.20;99.90;;;;;;5003178;28;20458;-81
2020/12/04 00:44:30;;;;;;;4.13;3.73;;;6.10;99.90;;;;;;4986394;28;20886;-81
2020/12/04 00:47:02;;;;;;;5.83;4.93;;;6.20;99.90;;;;;;5004581;28;20454;-82
2020/12/04 00:49:28;;;;;;;5.60;4.30;;;6.20;99.90;;;;;;5004301;28;20553;-80
2020/12/04 00:51:55;;;;;;;5.10;4.00;;;6.30;99.90;;;;;;5008045;28;20461;-82
2020/12/04 00:54:21;;;;;;;6.37;4.20;;;6.30;99.90;;;;;;5008080;28;20450;-82
2020/12/04 00:56:48;;;;;;;7.07;5.00;;;6.20;99.90;;;;;;5008903;28;20470;-83
2020/12/04 00:59:14;;;;;;;7.27;4.47;;;6.20;99.90;;;;;;5007628;28;21002;-80
2020/12/04 01:01:40;;;;;;;4.53;4.13;;;6.30;99.90;;;;;;5007987;28;21676;-81
2020/12/04 01:04:07;;;;;;;6.17;4.43;;;6.10;99.90;;;;;;4990997;28;20533;-81
2020/12/04 01:06:35;;;;;;;5.10;4.60;;;6.20;99.90;;;;;;5008227;28;20457;-83
2020/12/04 01:09:04;;;;;;;5.40;4.50;;;6.10;99.90;;;;;;5006406;28;20493;-81
2020/12/04 01:11:31;;;;;;;4.17;3.77;;;6.20;99.90;;;;;;5008501;28;21087;-81
2020/12/04 01:13:59;;;;;;;5.10;4.30;;;6.20;99.90;;;;;;5011546;28;20875;-79
2020/12/04 01:16:25;;;;;;;4.60;4.20;;;6.20;99.90;;;;;;5010555;28;20449;-80
2020/12/04 01:18:51;;;;;;;7.20;5.40;;;6.10;99.90;;;;;;5009393;28;20489;-79
2020/12/04 01:21:17;;;;;;;5.33;4.60;;;6.10;99.90;;;;;;5011459;28;21187;-81
2020/12/04 01:23:44;;;;;;;5.47;4.80;;;6.20;99.90;;;;;;4996080;28;20458;-82
2020/12/04 01:26:10;;;;;;;5.00;4.20;;;6.20;99.90;;;;;;5012000;28;20453;-81
2020/12/04 01:28:36;;;;;;;5.77;4.00;;;6.10;99.90;;;;;;4998598;28;20496;-83
2020/12/04 01:31:02;;;;;;;4.37;3.57;;;6.20;99.90;;;;;;4995371;28;20536;-81
2020/12/04 01:33:28;;;;;;;7.50;5.03;;;6.00;99.90;;;;;;5014095;28;20462;-79
2020/12/04 01:35:55;;;;;;;5.27;4.40;;;6.20;99.90;;;;;;5011944;28;20848;-82
2020/12/04 01:38:21;;;;;;;5.40;4.90;;;6.20;99.90;;;;;;5009439;28;20841;-80
2020/12/04 01:40:47;;;;;;;5.13;4.63;;;6.10;99.90;;;;;;5010562;28;20465;-81
2020/12/04 01:43:13;;;;;;;6.80;5.47;;;6.00;99.90;;;;;;5010784;28;20485;-81
2020/12/04 01:45:40;;;;;;;5.70;5.20;;;6.20;99.90;;;;;;5004622;28;20501;-81
2020/12/04 01:48:06;;;;;;;4.77;3.27;;;6.20;99.90;;;;;;5006692;28;20493;-81
2020/12/04 01:50:32;;;;;;;7.40;5.93;;;6.10;99.90;;;;;;4987809;28;20659;-81
2020/12/04 01:52:59;;;;;;;6.40;5.40;;;6.00;99.90;;;;;;5006063;28;20457;-80
2020/12/04 01:55:26;;;;;;;4.57;3.67;;;6.10;99.90;;;;;;4988187;28;20463;-80
2020/12/04 01:57:53;;;;;;;7.67;5.17;;;6.10;99.90;;;;;;5009266;28;20493;-81
2020/12/04 02:00:20;;;;;;;5.93;5.00;;;6.20;99.90;;;;;;5020554;28;20458;-81
2020/12/04 02:02:47;;;;;;;5.50;4.80;;;6.00;99.90;;;;;;4998761;28;20458;-80
2020/12/04 02:05:15;;;;;;;6.20;5.60;;;6.10;99.90;;;;;;5006888;28;20968;-81
2020/12/04 02:08:01;;;;;;;5.97;5.37;;;6.00;99.90;;;;;;5008139;28;20853;-79
2020/12/04 02:10:42;;;;;;;6.00;4.90;;;6.10;99.90;;;;;;5008858;28;20455;-81
2020/12/04 02:13:10;;;;;;;6.33;4.30;;;6.30;99.90;;;;;;5009516;28;20439;-81
2020/12/04 02:15:37;;;;;;;5.43;4.67;;;6.10;99.90;;;;;;5007164;28;20458;-82
2020/12/04 02:18:04;;;;;;;5.07;4.17;;;6.10;99.90;;;;;;5013200;28;20476;-80
2020/12/04 02:20:34;;;;;;;9.37;5.43;;;6.10;99.90;;;;;;5006495;28;20489;-82
2020/12/04 02:23:01;;;;;;;3.60;3.30;;;6.10;99.90;;;;;;5009530;28;20446;-82
2020/12/04 02:25:27;;;;;;;7.13;5.00;;;6.10;99.90;;;;;;4995160;28;20555;-80
2020/12/04 02:27:53;;;;;;;4.87;4.30;;;6.00;99.90;;;;;;4993535;28;20523;-81
2020/12/04 02:30:27;;;;;;;7.17;6.13;;;6.10;99.90;;;;;;4318928;28;10000758;-81
2020/12/04 02:32:54;;;;;;;5.57;4.20;;;6.00;99.90;;;;;;5010587;28;20667;-81
2020/12/04 02:35:20;;;;;;;6.50;4.60;;;6.10;99.90;;;;;;4990261;28;20450;-80
2020/12/04 02:37:46;;;;;;;7.43;5.90;;;6.00;99.90;;;;;;5009645;28;20489;-82
2020/12/04 02:40:12;;;;;;;5.00;3.77;;;6.10;99.90;;;;;;5010113;28;20728;-81
2020/12/04 02:42:42;;;;;;;6.37;5.17;;;6.00;99.90;;;;;;5009351;28;20445;-80
2020/12/04 02:45:09;;;;;;;6.37;5.20;;;6.10;99.90;;;;;;5006011;28;20454;-81
2020/12/04 02:47:36;;;;;;;5.83;5.23;;;6.00;99.90;;;;;;5008339;28;20501;-79
2020/12/04 02:50:03;;;;;;;4.77;4.37;;;6.10;99.90;;;;;;5006328;28;20466;-81
2020/12/04 02:52:30;;;;;;;5.13;4.60;;;6.10;99.90;;;;;;5008701;28;20451;-81
2020/12/04 02:54:56;;;;;;;6.30;4.97;;;6.00;99.90;;;;;;5006815;28;20484;-82
2020/12/04 02:57:22;;;;;;;4.83;4.33;;;5.90;99.90;;;;;;5008530;28;20454;-81
2020/12/04 02:59:48;;;;;;;5.93;5.30;;;5.90;99.90;;;;;;5006947;28;20451;-81
2020/12/04 03:02:15;;;;;;;7.20;5.20;;;5.80;99.90;;;;;;5008097;28;20442;-81
2020/12/04 03:04:43;;;;;;;5.13;4.63;;;5.90;99.90;;;;;;5011962;28;20447;-81
2020/12/04 03:07:10;;;;;;;7.50;5.40;;;5.90;99.90;;;;;;5009026;28;20466;-82
2020/12/04 03:09:37;;;;;;;7.67;5.43;;;5.90;99.90;;;;;;4989380;28;20489;-82
2020/12/04 03:12:03;;;;;;;4.50;3.70;;;6.00;99.90;;;;;;5004350;28;20446;-80
2020/12/04 03:14:30;;;;;;;4.43;4.03;;;5.80;99.90;;;;;;5006768;28;20485;-80
2020/12/04 03:16:56;;;;;;;5.27;4.07;;;6.00;99.90;;;;;;5008617;28;20451;-81
2020/12/04 03:19:22;;;;;;;4.77;3.83;;;6.10;99.90;;;;;;5006392;28;20837;-78
2020/12/04 03:21:48;;;;;;;4.30;3.80;;;6.10;99.90;;;;;;5010097;28;20450;-81
2020/12/04 03:24:14;;;;;;;5.10;4.30;;;6.10;99.90;;;;;;5007871;28;20454;-82
2020/12/04 03:26:41;;;;;;;4.80;3.60;;;6.00;99.90;;;;;;5008423;28;20442;-80
2020/12/04 03:29:07;;;;;;;3.70;3.23;;;6.10;99.90;;;;;;4990320;28;20494;-81
2020/12/04 03:31:33;;;;;;;5.53;3.83;;;6.10;99.90;;;;;;5007029;28;20469;-80
2020/12/04 03:33:59;;;;;;;7.03;4.77;;;6.00;99.90;;;;;;5005231;28;20507;-81
2020/12/04 03:36:25;;;;;;;4.73;4.33;;;6.10;99.90;;;;;;5004980;28;20454;-83
2020/12/04 03:38:52;;;;;;;5.40;4.50;;;6.10;99.90;;;;;;5010221;28;20504;-80
2020/12/04 03:41:18;;;;;;;4.67;4.27;;;6.20;99.90;;;;;;5008818;28;20465;-81
2020/12/04 03:43:44;;;;;;;4.80;4.00;;;6.20;99.90;;;;;;5006678;28;20469;-81
2020/12/04 03:46:10;;;;;;;2.70;2.50;;;6.20;99.90;;;;;;5007858;28;20474;-81
2020/12/04 03:48:40;;;;;;;5.00;4.47;;;6.30;99.90;;;;;;5012627;28;20487;-81
2020/12/04 03:51:10;;;;;;;6.20;4.93;;;6.10;99.90;;;;;;5018888;28;20473;-79
2020/12/04 03:53:36;;;;;;;6.50;4.30;;;6.30;99.90;;;;;;5021568;28;21034;-80
2020/12/04 03:56:02;;;;;;;2.97;2.77;;;6.30;99.90;;;;;;5019499;28;20548;-80
2020/12/04 03:58:29;;;;;;;3.87;3.47;;;6.40;99.90;;;;;;5019732;28;20470;-78
2020/12/04 04:00:55;;;;;;;4.50;3.97;;;6.30;99.90;;;;;;4996949;28;20449;-80
2020/12/04 04:03:21;;;;;;;4.73;4.23;;;6.30;99.90;;;;;;5006350;28;20450;-81
2020/12/04 04:05:48;;;;;;;4.60;4.20;;;6.30;99.90;;;;;;5006021;28;20454;-78
2020/12/04 04:08:14;;;;;;;6.10;4.23;;;6.30;99.90;;;;;;5006210;28;20481;-79
2020/12/04 04:10:40;;;;;;;4.30;3.90;;;6.40;99.90;;;;;;5004688;28;21063;-81
2020/12/04 04:13:06;;;;;;;5.43;4.47;;;6.30;99.90;;;;;;5008727;28;20450;-80
2020/12/04 04:15:33;;;;;;;3.00;2.80;;;6.50;99.90;;;;;;5006895;28;20454;-80
2020/12/04 04:17:59;;;;;;;4.00;3.57;;;6.60;99.90;;;;;;5006349;28;20482;-80
2020/12/04 04:20:29;;;;;;;5.50;3.53;;;6.60;99.90;;;;;;5006378;28;20458;-81
2020/12/04 04:22:55;;;;;;;3.53;3.23;;;6.60;99.90;;;;;;5006484;28;20580;-81
2020/12/04 04:25:22;;;;;;;2.97;2.73;;;6.60;99.90;;;;;;5008869;28;21018;-82
2020/12/04 04:27:48;;;;;;;2.37;2.17;;;6.50;99.90;;;;;;5010347;28;20493;-80
2020/12/04 04:30:14;;;;;;;4.13;3.73;;;6.70;99.90;;;;;;5011760;28;20450;-81
2020/12/04 04:32:41;;;;;;;3.20;2.90;;;6.70;99.90;;;;;;5007119;28;20461;-80
2020/12/04 04:35:08;;;;;;;2.97;2.60;;;6.50;99.90;;;;;;5011512;28;20480;-81
2020/12/04 04:37:35;;;;;;;4.00;3.70;;;6.70;99.90;;;;;;4995621;28;20991;-81
2020/12/04 04:40:02;;;;;;;3.07;2.77;;;6.60;99.90;;;;;;5010697;28;20567;-82
2020/12/04 04:42:29;;;;;;;4.20;3.67;;;6.70;99.90;;;;;;5016712;28;20469;-82
2020/12/04 04:44:56;;;;;;;6.67;3.87;;;6.80;99.90;;;;;;5006641;28;20934;-82
2020/12/04 04:47:29;;;;;;;3.60;2.83;;;6.80;99.90;;;;;;5021925;28;20520;-80
2020/12/04 04:49:56;;;;;;;4.67;4.27;;;6.70;99.90;;;;;;5020090;28;20461;-81
2020/12/04 04:52:25;;;;;;;4.10;2.90;;;6.50;99.90;;;;;;5015885;28;20742;-81
2020/12/04 04:54:52;;;;;;;3.70;3.40;;;6.80;99.90;;;;;;5011513;28;20462;-82
2020/12/04 04:57:24;;;;;;;4.83;3.90;;;6.90;99.90;;;;;;5019606;28;20442;-81
2020/12/04 04:59:54;;;;;;;3.23;2.90;;;6.80;99.90;;;;;;5020709;28;20571;-79
2020/12/04 05:02:21;;;;;;;3.47;3.17;;;6.90;99.90;;;;;;5023639;28;20458;-80
2020/12/04 05:04:54;;;;;;;3.57;2.80;;;6.90;99.90;;;;;;5003731;28;20445;-81
2020/12/04 05:07:34;;;;;;;5.30;3.40;;;6.90;99.90;;;;;;5022420;28;20470;-81
2020/12/04 05:10:20;;;;;;;4.20;3.73;;;6.80;99.90;;;;;;5003132;28;20546;-82
2020/12/04 05:13:00;;;;;;;4.00;3.50;;;6.80;99.90;;;;;;5024461;28;20447;-83
2020/12/04 05:15:28;;;;;;;3.47;2.60;;;6.90;99.90;;;;;;5014293;28;20452;-81
2020/12/04 05:18:22;;;;;;;3.60;2.77;;;6.90;99.90;;;;;;5011389;28;21084;-82
2020/12/04 05:20:50;;;;;;;2.80;2.60;;;7.00;99.90;;;;;;5010060;28;20941;-81
2020/12/04 05:23:17;;;;;;;2.90;2.50;;;7.00;99.90;;;;;;5012760;28;20449;-82
2020/12/04 05:25:46;;;;;;;4.20;2.83;;;6.90;99.90;;;;;;4995483;28;20555;-81
2020/12/04 05:28:18;;;;;;;3.43;2.70;;;6.80;99.90;;;;;;5008057;28;20478;-82
2020/12/04 05:30:46;;;;;;;2.87;2.57;;;6.80;99.90;;;;;;5007949;28;20454;-78
2020/12/04 05:33:13;;;;;;;4.13;3.73;;;7.00;99.90;;;;;;5006873;28;20453;-80
2020/12/04 05:35:40;;;;;;;3.10;2.77;;;7.00;99.90;;;;;;4992688;28;20462;-82
2020/12/04 05:38:07;;;;;;;2.80;2.30;;;6.70;99.90;;;;;;5010633;28;20971;-82
2020/12/04 05:40:35;;;;;;;2.50;2.30;;;7.00;99.90;;;;;;5019892;28;20445;-81
2020/12/04 05:43:02;;;;;;;9.83;4.73;;;7.10;99.90;;;;;;5010559;28;20465;-81
2020/12/04 05:45:29;;;;;;;2.67;2.20;;;7.20;99.90;;;;;;5008790;28;20458;-79
2020/12/04 05:47:56;;;;;;;3.00;2.77;;;7.10;99.90;;;;;;5010257;28;20879;-81
2020/12/04 05:50:22;;;;;;;3.63;3.03;;;7.10;99.90;;;;;;5010187;28;20462;-80
2020/12/04 05:52:49;;;;;;;3.73;3.07;;;7.10;99.90;;;;;;4994521;28;20807;-82
2020/12/04 05:55:16;;;;;;;2.80;2.50;;;7.10;99.90;;;;;;5010020;28;20993;-81
2020/12/04 05:57:43;;;;;;;3.83;2.57;;;6.90;99.90;;;;;;5011540;28;20472;-81
2020/12/04 06:00:11;;;;;;;3.70;3.30;;;7.10;99.90;;;;;;5021550;28;20451;-80
2020/12/04 06:02:38;;;;;;;3.20;2.50;;;7.20;99.90;;;;;;5009031;28;20461;-81
2020/12/04 06:05:06;;;;;;;4.47;3.37;;;7.00;99.90;;;;;;5008320;28;20495;-81
2020/12/04 06:07:33;;;;;;;4.53;3.27;;;7.20;99.90;;;;;;5009813;28;20521;-80
2020/12/04 06:09:59;;;;;;;4.03;2.83;;;7.20;99.90;;;;;;5013035;28;20565;-81
2020/12/04 06:12:26;;;;;;;2.80;2.30;;;7.30;99.90;;;;;;5008642;28;20533;-81
2020/12/04 06:14:52;;;;;;;2.40;2.00;;;7.40;99.90;;;;;;5010017;28;20470;-82
2020/12/04 06:17:18;;;;;;;3.20;2.57;;;7.30;99.90;;;;;;5007890;28;20457;-82
2020/12/04 06:19:45;;;;;;;3.30;2.67;;;7.20;99.90;;;;;;4992600;28;20477;-81
2020/12/04 06:22:14;;;;;;;3.10;2.33;;;7.30;99.90;;;;;;5006191;28;20460;-81
2020/12/04 06:24:52;;;;;;;4.57;2.27;;;7.30;99.90;;;;;;5006633;28;20462;-81
2020/12/04 06:27:34;;;;;;;2.53;2.30;;;7.20;99.90;;;;;;5007411;28;20450;-81
2020/12/04 06:30:02;;;;;;;3.03;2.10;;;7.40;99.90;;;;;;5007358;28;20561;-80
2020/12/04 06:32:41;;;;;;;2.40;1.87;;;7.40;99.90;;;;;;4987741;28;20465;-82
2020/12/04 06:35:08;;;;;;;8.77;3.03;;;7.20;99.90;;;;;;5006165;28;21227;-81
2020/12/04 06:37:40;;;;;;;5.70;2.73;;;7.50;99.90;;;;;;5005731;28;20464;-81
2020/12/04 06:40:31;;;;;;;3.63;2.40;;;7.70;99.90;;;;;;5008751;28;20588;-82
2020/12/04 06:43:01;;;;;;;3.47;2.10;;;7.40;99.90;;;;;;5009044;28;20950;-81
2020/12/04 06:45:48;;;;;;;2.83;1.60;;;7.50;99.90;;;;;;5006034;28;20510;-83
2020/12/04 06:48:17;;;;;;;2.40;2.07;;;7.50;99.90;;;;;;5005354;28;20500;-80
2020/12/04 06:50:45;;;;;;;4.67;3.10;;;7.50;99.90;;;;;;5011610;28;20783;-80
2020/12/04 06:53:13;;;;;;;4.53;1.90;;;7.50;99.90;;;;;;4992817;28;20461;-79
2020/12/04 06:55:41;;;;;;;2.70;2.50;;;7.50;99.90;;;;;;5008203;28;20463;-81
2020/12/04 06:58:07;;;;;;;2.93;2.60;;;7.80;99.90;;;;;;5008158;28;20470;-82
2020/12/04 07:00:35;;;;;;;2.70;2.20;;;7.70;99.90;;;;;;5006547;28;20456;-81
2020/12/04 07:03:05;;;;;;;1.73;1.63;;;7.60;99.90;;;;;;5010241;28;20556;-81
2020/12/04 07:05:34;;;;;;;3.30;1.90;;;7.60;99.90;;;;;;5012280;28;20460;-80
2020/12/04 07:08:06;;;;;;;3.80;2.30;;;7.80;99.90;;;;;;5011997;28;20473;-83
2020/12/04 07:10:33;;;;;;;3.63;2.70;;;7.60;99.90;;;;;;5005289;28;20454;-81
2020/12/04 07:13:04;;;;;;;1.50;1.40;;;7.80;99.90;;;;;;4993251;28;20461;-81
2020/12/04 07:15:32;;;;;;;3.90;2.50;;;7.60;99.90;;;;;;4995340;28;20452;-80
2020/12/04 07:17:59;;;;;;;2.97;2.67;;;7.90;99.90;;;;;;5007176;28;20482;-80
2020/12/04 07:20:36;;;;;;;2.90;1.77;;;7.90;99.90;;;;;;5007523;28;20454;-84
2020/12/04 07:23:07;;;;;;;2.87;2.43;;;7.90;99.90;;;;;;5005108;28;20449;-81
2020/12/04 07:25:34;;;;;;;2.70;2.43;;;7.80;99.90;;;;;;5008373;28;21370;-83
2020/12/04 07:28:06;;;;;;;2.73;2.30;;;7.60;99.90;;;;;;5008335;28;20482;-80
2020/12/04 07:30:47;;;;;;;3.37;2.47;;;7.60;99.90;;;;;;5005922;28;20458;-81
2020/12/04 07:33:13;;;;;;;2.60;2.40;;;7.90;99.90;;;;;;5014064;28;20850;-81
2020/12/04 07:35:39;;;;;;;2.90;2.00;;;7.90;99.90;;;;;;5019673;28;20526;-81
2020/12/04 07:38:08;;;;;;;1.93;1.73;;;7.80;99.90;;;;;;5009607;28;20480;-79
2020/12/04 07:40:35;;;;;;;3.73;2.30;;;7.90;99.90;;;;;;5014877;28;20465;-81
2020/12/04 07:43:03;;;;;;;2.57;2.37;;;8.00;99.90;;;;;;5016671;28;20462;-81
2020/12/04 07:45:29;;;;;;;2.63;2.10;;;7.90;99.90;;;;;;5011490;28;20453;-81
2020/12/04 07:47:55;;;;;;;3.60;2.40;;;7.90;99.90;;;;;;5011832;28;20480;-81
2020/12/04 07:50:22;;;;;;;2.20;2.03;;;7.80;99.90;;;;;;5007708;28;20454;-81
2020/12/04 07:52:53;;;;;;;3.50;2.57;;;7.70;99.90;;;;;;4991325;28;20450;-81
2020/12/04 07:55:21;;;;;;;1.33;1.23;;;7.70;99.90;;;;;;5005081;28;20539;-80
2020/12/04 07:58:09;;;;;;;2.50;2.30;;;8.10;99.90;;;;;;5008801;28;20540;-82
2020/12/04 08:00:36;;;;;;;2.03;1.70;;;8.10;99.90;;;;;;4993452;28;20880;-82
2020/12/04 08:03:14;;;;;;;3.37;2.50;;;8.10;99.90;;;;;;5008946;28;20541;-81
2020/12/04 08:05:41;;;;;;;3.03;1.77;;;8.20;99.90;;;;;;5009387;28;20470;-79
2020/12/04 08:08:07;;;;;;;2.00;1.80;;;8.10;99.90;;;;;;5008926;28;20483;-82
2020/12/04 08:10:34;;;;;;;1.63;1.53;;;7.90;99.90;;;;;;5007992;28;20525;-81
2020/12/04 08:13:03;;;;;;;1.60;1.50;;;8.00;99.90;;;;;;5003052;28;20450;-80
2020/12/04 08:15:29;;;;;;;1.73;1.63;;;7.90;99.90;;;;;;4991953;28;20449;-80
2020/12/04 08:18:05;;;;;;;2.47;1.73;;;8.20;99.90;;;;;;5008562;28;20469;-80
2020/12/04 08:20:32;;;;;;;1.40;1.30;;;8.20;99.90;;;;;;5013114;28;20461;-82
2020/12/04 08:22:59;;;;;;;1.53;1.43;;;8.20;99.90;;;;;;5030962;28;20549;-81
2020/12/04 08:25:28;;;;;;;1.53;1.43;;;8.20;99.90;;;;;;5034658;28;20490;-82
2020/12/04 08:27:55;;;;;;;1.10;1.00;;;8.20;99.90;;;;;;5024040;28;20548;-81
2020/12/04 08:30:23;;;;;;;1.50;1.40;;;8.10;99.90;;;;;;5021868;28;20496;-81
2020/12/04 08:33:01;;;;;;;1.80;1.17;;;8.10;99.90;;;;;;5016121;28;20521;-80
2020/12/04 08:35:32;;;;;;;2.30;1.70;;;8.10;99.90;;;;;;5016458;28;20465;-81
2020/12/04 08:38:08;;;;;;;1.53;1.43;;;8.20;99.90;;;;;;5016841;28;20469;-80
2020/12/04 08:40:37;;;;;;;1.80;1.40;;;8.50;99.90;;;;;;5015819;28;20498;-80
2020/12/04 08:43:14;;;;;;;1.30;1.20;;;8.50;99.90;;;;;;5011577;28;20461;-80
2020/12/04 08:45:42;;;;;;;1.50;1.40;;;8.40;99.90;;;;;;4994566;28;20454;-80
2020/12/04 08:48:11;;;;;;;1.83;1.73;;;8.20;99.90;;;;;;5012065;28;20487;-81
2020/12/04 08:51:00;;;;;;;1.97;1.83;;;8.30;99.90;;;;;;5013904;28;20451;-81
2020/12/04 08:53:30;;;;;;;1.50;1.40;;;8.40;99.90;;;;;;4992615;28;20457;-79
2020/12/04 08:55:59;;;;;;;2.30;1.90;;;8.30;99.90;;;;;;5009818;28;20457;-80
2020/12/04 08:58:27;;;;;;;2.20;2.00;;;8.30;99.90;;;;;;5021095;28;20494;-81
2020/12/04 09:00:55;;;;;;;1.80;1.63;;;8.40;99.90;;;;;;4998007;28;20520;-79
2020/12/04 09:03:23;;;;;;;2.10;1.90;;;8.50;99.90;;;;;;5014514;28;20491;-81
2020/12/04 09:05:50;;;;;;;1.83;1.70;;;8.30;99.90;;;;;;5010843;28;20454;-79
2020/12/04 09:08:16;;;;;;;1.70;1.60;;;8.30;99.90;;;;;;5016680;28;20470;-81
2020/12/04 09:10:42;;;;;;;2.13;1.67;;;8.50;99.90;;;;;;4994950;28;20462;-80
2020/12/04 09:13:09;;;;;;;1.60;1.50;;;8.60;99.90;;;;;;5011916;28;20450;-81
2020/12/04 09:15:36;;;;;;;1.43;1.33;;;8.70;99.90;;;;;;4995811;28;21020;-81
2020/12/04 09:18:03;;;;;;;2.20;1.40;;;8.80;99.90;;;;;;4996741;28;20488;-81
2020/12/04 09:20:30;;;;;;;1.70;1.50;;;8.60;99.90;;;;;;5010415;28;20469;-80
2020/12/04 09:22:57;;;;;;;1.50;1.40;;;8.60;99.90;;;;;;5015250;28;20458;-80
2020/12/04 09:25:23;;;;;;;1.20;1.10;;;8.90;99.90;;;;;;4995714;28;20466;-81
2020/12/04 09:27:51;;;;;;;1.33;1.23;;;8.70;99.90;;;;;;5014442;28;20821;-79
2020/12/04 09:30:19;;;;;;;1.40;1.30;;;8.60;99.90;;;;;;5010818;28;20470;-81
2020/12/04 09:32:49;;;;;;;3.03;1.30;;;8.80;99.90;;;;;;5013196;28;20457;-81
2020/12/04 09:35:15;;;;;;;1.40;1.03;;;9.10;99.90;;;;;;5010004;28;21069;-80
2020/12/04 09:37:43;;;;;;;2.03;1.40;;;9.40;99.90;;;;;;4994739;28;20498;-82
2020/12/04 09:40:13;;;;;;;1.70;1.40;;;9.30;99.90;;;;;;5015201;28;20449;-81
2020/12/04 09:42:40;;;;;;;2.10;1.80;;;9.50;99.90;;;;;;4997029;28;21049;-81
2020/12/04 09:45:08;;;;;;;2.00;1.23;;;9.20;99.90;;;;;;5010304;28;20463;-79
2020/12/04 09:47:36;;;;;;;1.67;1.47;;;9.80;99.90;;;;;;5011176;28;20974;-80
2020/12/04 09:50:11;;;;;;;1.80;1.60;;;10.00;99.90;;;;;;5010826;28;20489;-82
2020/12/04 09:52:39;;;;;;;1.73;1.43;;;10.00;99.90;;;;;;5009942;28;20920;-81
2020/12/04 09:55:06;;;;;;;2.97;1.30;;;9.70;99.90;;;;;;5015718;28;20458;-81
2020/12/04 09:57:34;;;;;;;1.90;1.67;;;9.50;99.90;;;;;;5013104;28;20453;-81
2020/12/04 10:00:02;;;;;;;1.63;1.10;;;9.70;99.90;;;;;;5011155;28;20849;-83
2020/12/04 10:02:28;;;;;;;1.50;1.20;;;9.70;99.90;;;;;;5010112;28;20531;-82
2020/12/04 10:04:55;;;;;;;1.70;1.40;;;9.30;99.90;;;;;;5009075;28;20465;-81
2020/12/04 10:07:22;;;;;;;0.97;0.97;;;9.30;99.90;;;;;;5010162;28;20457;-82
2020/12/04 10:09:48;;;;;;;1.60;1.27;;;9.50;99.90;;;;;;5011698;28;20608;-81
2020/12/04 10:12:14;;;;;;;1.47;1.37;;;9.60;99.90;;;;;;4992871;28;20461;-82
2020/12/04 10:14:41;;;;;;;1.83;1.10;;;9.40;99.90;;;;;;5010035;28;20458;-82
2020/12/04 10:17:08;;;;;;;1.50;1.40;;;9.40;99.90;;;;;;4991958;28;20453;-82
2020/12/04 10:19:35;;;;;;;1.43;1.00;;;9.30;99.90;;;;;;4998994;28;20517;-81
2020/12/04 10:22:04;;;;;;;1.30;1.20;;;9.40;99.90;;;;;;4991676;28;20454;-81
2020/12/04 10:24:31;;;;;;;1.10;1.00;;;9.50;99.90;;;;;;5016657;28;20703;-81
2020/12/04 10:26:58;;;;;;;3.73;1.90;;;9.30;99.90;;;;;;5021799;28;20465;-80
2020/12/04 10:29:24;;;;;;;0.80;0.80;;;9.50;99.90;;;;;;5017592;28;20489;-82
2020/12/04 10:31:50;;;;;;;1.63;1.00;;;9.60;99.90;;;;;;5013279;28;20452;-81
2020/12/04 10:34:17;;;;;;;1.83;0.80;;;9.70;99.90;;;;;;4996173;28;20450;-82
2020/12/04 10:36:43;;;;;;;2.80;1.17;;;9.50;99.90;;;;;;5017851;28;20450;-82
2020/12/04 10:39:11;;;;;;;1.33;0.80;;;9.40;99.90;;;;;;5015140;28;20948;-79
2020/12/04 10:41:39;;;;;;;3.23;0.90;;;9.60;99.90;;;;;;5012893;28;20467;-81
2020/12/04 10:44:07;;;;;;;2.73;1.27;;;9.50;99.90;;;;;;5013043;28;20474;-80
2020/12/04 10:46:35;;;;;;;1.10;0.80;;;9.50;99.90;;;;;;5011076;28;20543;-80
2020/12/04 10:49:02;;;;;;;1.07;0.83;;;9.10;99.90;;;;;;5008210;28;20493;-80
2020/12/04 10:51:28;;;;;;;1.50;0.90;;;9.40;99.90;;;;;;5012172;28;20460;-82
2020/12/04 10:53:54;;;;;;;0.90;0.90;;;9.20;99.90;;;;;;4996418;28;20529;-80
2020/12/04 10:56:22;;;;;;;0.80;0.70;;;9.20;99.90;;;;;;5010815;28;21812;-82
2020/12/04 10:58:53;;;;;;;2.70;1.10;;;9.20;99.90;;;;;;5008778;28;20489;-81
2020/12/04 11:01:56;;;;;;;0.70;0.63;;;9.10;99.90;;;;;;5011088;28;20460;-82
2020/12/04 11:06:57;;;;;;;1.13;0.90;;;9.20;99.90;;;;;;5010546;28;20454;-82
2020/12/04 11:09:23;;;;;;;1.13;0.97;;;9.20;99.90;;;;;;4995530;28;20485;-82
2020/12/04 11:11:49;;;;;;;0.97;0.97;;;9.00;99.90;;;;;;5026837;28;20440;-83
2020/12/04 11:14:16;;;;;;;1.83;1.20;;;9.20;99.90;;;;;;5028830;28;20465;-82
2020/12/04 11:16:42;;;;;;;1.37;1.17;;;9.30;99.90;;;;;;5029070;28;20451;-80
2020/12/04 11:19:10;;;;;;;1.10;1.00;;;9.30;99.90;;;;;;5029207;28;20489;-82
2020/12/04 11:21:36;;;;;;;2.30;1.80;;;9.10;99.90;;;;;;5028259;28;20481;-81
2020/12/04 11:24:02;;;;;;;1.90;1.67;;;9.30;99.90;;;;;;5028646;28;20450;-82
2020/12/04 11:26:29;;;;;;;1.97;1.30;;;9.40;99.90;;;;;;5030614;28;20460;-85
2020/12/04 11:28:55;;;;;;;2.27;1.43;;;9.30;99.90;;;;;;5030372;28;20542;-81
2020/12/04 11:31:21;;;;;;;1.20;1.10;;;9.30;99.90;;;;;;5029446;28;20448;-82
2020/12/04 11:33:47;;;;;;;1.10;1.10;;;9.10;99.90;;;;;;5029734;28;20448;-80
2020/12/04 11:36:14;;;;;;;1.80;1.23;;;9.10;99.90;;;;;;5029920;28;20529;-83
2020/12/04 11:38:40;;;;;;;1.43;0.90;;;9.20;99.90;;;;;;5030914;28;20488;-80
2020/12/04 11:41:07;;;;;;;0.60;0.60;;;9.20;99.90;;;;;;5009691;28;20453;-83
2020/12/04 11:43:33;;;;;;;0.70;0.70;;;9.20;99.90;;;;;;5004119;28;20462;-81
2020/12/04 11:46:00;;;;;;;0.90;0.70;;;9.20;99.90;;;;;;5022528;28;20478;-81
2020/12/04 11:48:27;;;;;;;0.70;0.60;;;9.10;99.90;;;;;;5010218;28;20568;-82
2020/12/04 11:50:53;;;;;;;1.00;0.60;;;9.00;99.90;;;;;;5017154;28;20457;-83
2020/12/04 11:53:19;;;;;;;1.83;0.50;;;9.10;99.90;;;;;;5014969;28;20486;-78
2020/12/04 11:55:46;;;;;;;1.63;0.70;;;9.20;99.90;;;;;;5008822;28;20931;-79
2020/12/04 11:58:13;;;;;;;2.60;0.60;;;9.20;99.90;;;;;;5023221;28;20519;-81
2020/12/04 12:00:40;;;;;;;0.97;0.60;;;9.30;99.90;;;;;;5004342;28;20446;-83
2020/12/04 12:03:06;;;;;;;0.77;0.53;;;9.30;99.90;;;;;;5012990;28;20469;-81
2020/12/04 12:05:36;;;;;;;0.53;0.53;;;9.30;99.90;;;;;;5011423;28;20446;-81
2020/12/04 12:08:03;;;;;;;0.77;0.77;;;9.30;99.90;;;;;;5017127;28;20485;-80
2020/12/04 12:10:29;;;;;;;0.70;0.60;;;9.30;99.90;;;;;;5017968;28;20476;-80
2020/12/04 12:12:55;;;;;;;1.07;0.90;;;9.40;99.90;;;;;;5017770;28;20449;-80
2020/12/04 12:15:21;;;;;;;0.77;0.70;;;9.50;99.90;;;;;;5017771;28;20445;-81
2020/12/04 12:17:48;;;;;;;0.87;0.63;;;9.50;99.90;;;;;;5013541;28;20466;-81
2020/12/04 12:20:14;;;;;;;0.87;0.70;;;9.60;99.90;;;;;;5006999;28;20454;-80
2020/12/04 12:22:40;;;;;;;0.90;0.60;;;9.70;99.90;;;;;;4990817;28;20577;-81
2020/12/04 12:25:06;;;;;;;1.60;0.60;;;9.80;99.90;;;;;;5007806;28;20464;-82
2020/12/04 12:27:32;;;;;;;1.53;0.70;;;9.80;99.90;;;;;;4990468;28;21948;-81
2020/12/04 12:29:58;;;;;;;1.50;0.87;;;9.70;99.90;;;;;;4662633;28;9999808;-79
2020/12/04 12:32:25;;;;;;;0.60;0.60;;;9.80;99.90;;;;;;5009911;28;20206;-83
2020/12/04 12:35:01;;;;;;;0.50;0.50;;;9.90;99.90;;;;;;5009438;28;20453;-83
2020/12/04 12:37:32;;;;;;;0.60;0.60;;;9.90;99.90;;;;;;5009389;28;20461;-82
2020/12/04 12:40:03;;;;;;;0.80;0.60;;;10.00;99.90;;;;;;5006440;28;20462;-80
2020/12/04 12:42:31;;;;;;;0.70;0.50;;;9.90;99.90;;;;;;5016999;28;20469;-81
2020/12/04 12:44:58;;;;;;;0.60;0.60;;;10.10;99.90;;;;;;5025223;28;20470;-80
2020/12/04 12:47:25;;;;;;;1.17;0.60;;;10.20;99.90;;;;;;5018121;28;20954;-81
2020/12/04 12:49:51;;;;;;;0.87;0.83;;;10.10;99.90;;;;;;5015257;28;20503;-82
2020/12/04 12:52:18;;;;;;;1.13;0.77;;;10.10;99.90;;;;;;5014403;28;20613;-80
2020/12/04 12:54:44;;;;;;;2.47;1.07;;;10.20;99.90;;;;;;5020367;28;20950;-81
2020/12/04 12:57:10;;;;;;;4.00;0.90;;;10.00;99.90;;;;;;5016603;28;20760;-79
2020/12/04 12:59:37;;;;;;;1.33;1.00;;;9.90;99.90;;;;;;5012597;28;20498;-81
2020/12/04 13:02:03;;;;;;;1.73;1.00;;;10.00;99.90;;;;;;5015632;28;20521;-81